sensor_id;sensor_type;location;lat;lon;timestamp;temperature;humidity
15483;DHT22;7843;50.330;7.312;2023-06-22T00:01:20;22.00;94.50
15483;DHT22;7843;50.330;7.312;2023-06-22T00:03:49;22.00;94.30
15483;DHT22;7843;50.330;7.312;2023-06-22T00:06:15;22.00;94.60
15483;DHT22;7843;50.330;7.312;2023-06-22T00:08:42;21.90;94.90
15483;DHT22;7843;50.330;7.312;2023-06-22T00:11:09;21.90;95.30
15483;DHT22;7843;50.330;7.312;2023-06-22T00:13:36;21.80;95.80
15483;DHT22;7843;50.330;7.312;2023-06-22T00:16:03;21.80;96.00
15483;DHT22;7843;50.330;7.312;2023-06-22T00:18:29;21.70;96.20
15483;DHT22;7843;50.330;7.312;2023-06-22T00:20:57;21.70;96.40
15483;DHT22;7843;50.330;7.312;2023-06-22T00:23:24;21.60;96.70
15483;DHT22;7843;50.330;7.312;2023-06-22T00:25:51;21.60;96.90
15483;DHT22;7843;50.330;7.312;2023-06-22T00:28:19;21.60;96.90
15483;DHT22;7843;50.330;7.312;2023-06-22T00:30:46;21.60;97.40
15483;DHT22;7843;50.330;7.312;2023-06-22T00:33:14;21.60;97.50
15483;DHT22;7843;50.330;7.312;2023-06-22T00:35:41;21.60;97.50
15483;DHT22;7843;50.330;7.312;2023-06-22T00:38:08;21.60;97.40
15483;DHT22;7843;50.330;7.312;2023-06-22T00:40:35;21.60;97.40
15483;DHT22;7843;50.330;7.312;2023-06-22T00:43:02;21.60;97.00
15483;DHT22;7843;50.330;7.312;2023-06-22T00:45:29;21.50;97.10
15483;DHT22;7843;50.330;7.312;2023-06-22T00:47:57;21.40;97.60
15483;DHT22;7843;50.330;7.312;2023-06-22T00:50:29;21.50;97.90
15483;DHT22;7843;50.330;7.312;2023-06-22T00:53:03;21.40;97.90
15483;DHT22;7843;50.330;7.312;2023-06-22T00:55:41;21.40;98.00
15483;DHT22;7843;50.330;7.312;2023-06-22T00:58:10;21.30;98.20
15483;DHT22;7843;50.330;7.312;2023-06-22T01:00:39;21.30;98.20
15483;DHT22;7843;50.330;7.312;2023-06-22T01:03:06;21.30;98.30
15483;DHT22;7843;50.330;7.312;2023-06-22T01:05:36;21.30;98.30
15483;DHT22;7843;50.330;7.312;2023-06-22T01:11:32;21.20;99.20
15483;DHT22;7843;50.330;7.312;2023-06-22T01:14:08;21.20;99.70
15483;DHT22;7843;50.330;7.312;2023-06-22T01:16:40;21.20;99.90
15483;DHT22;7843;50.330;7.312;2023-06-22T01:19:36;21.20;99.90
15483;DHT22;7843;50.330;7.312;2023-06-22T01:22:06;21.10;99.90
15483;DHT22;7843;50.330;7.312;2023-06-22T01:25:11;21.10;99.90
15483;DHT22;7843;50.330;7.312;2023-06-22T01:27:51;21.00;99.90
15483;DHT22;7843;50.330;7.312;2023-06-22T01:30:19;21.00;99.90
15483;DHT22;7843;50.330;7.312;2023-06-22T01:32:47;20.90;99.90
15483;DHT22;7843;50.330;7.312;2023-06-22T01:35:15;20.90;99.90
15483;DHT22;7843;50.330;7.312;2023-06-22T01:37:42;20.90;99.90
15483;DHT22;7843;50.330;7.312;2023-06-22T01:40:09;20.80;99.90
15483;DHT22;7843;50.330;7.312;2023-06-22T01:42:37;20.80;99.90
15483;DHT22;7843;50.330;7.312;2023-06-22T01:45:04;20.80;99.90
15483;DHT22;7843;50.330;7.312;2023-06-22T01:47:32;20.80;99.90
15483;DHT22;7843;50.330;7.312;2023-06-22T01:49:59;20.70;99.90
15483;DHT22;7843;50.330;7.312;2023-06-22T01:52:25;20.70;99.90
15483;DHT22;7843;50.330;7.312;2023-06-22T01:54:52;20.70;99.90
15483;DHT22;7843;50.330;7.312;2023-06-22T01:57:20;20.70;99.90
15483;DHT22;7843;50.330;7.312;2023-06-22T02:00:03;20.60;99.90
15483;DHT22;7843;50.330;7.312;2023-06-22T02:02:36;20.60;99.90
15483;DHT22;7843;50.330;7.312;2023-06-22T02:05:07;20.60;99.90
15483;DHT22;7843;50.330;7.312;2023-06-22T02:07:42;20.60;99.90
15483;DHT22;7843;50.330;7.312;2023-06-22T02:10:12;20.60;99.90
15483;DHT22;7843;50.330;7.312;2023-06-22T02:12:42;20.50;99.90
15483;DHT22;7843;50.330;7.312;2023-06-22T02:15:10;20.50;99.90
15483;DHT22;7843;50.330;7.312;2023-06-22T02:17:39;20.50;99.90
15483;DHT22;7843;50.330;7.312;2023-06-22T02:20:06;20.50;99.90
15483;DHT22;7843;50.330;7.312;2023-06-22T02:22:35;20.60;99.90
15483;DHT22;7843;50.330;7.312;2023-06-22T02:25:02;20.50;99.90
15483;DHT22;7843;50.330;7.312;2023-06-22T02:27:29;20.50;99.90
15483;DHT22;7843;50.330;7.312;2023-06-22T02:29:56;20.50;99.90
15483;DHT22;7843;50.330;7.312;2023-06-22T02:32:23;20.50;99.90
15483;DHT22;7843;50.330;7.312;2023-06-22T02:34:50;20.50;99.90
15483;DHT22;7843;50.330;7.312;2023-06-22T02:37:17;20.50;99.90
15483;DHT22;7843;50.330;7.312;2023-06-22T02:39:44;20.50;99.90
15483;DHT22;7843;50.330;7.312;2023-06-22T02:42:11;20.40;99.90
15483;DHT22;7843;50.330;7.312;2023-06-22T02:44:37;20.40;99.90
15483;DHT22;7843;50.330;7.312;2023-06-22T02:47:05;20.30;99.90
15483;DHT22;7843;50.330;7.312;2023-06-22T02:49:35;20.40;99.90
15483;DHT22;7843;50.330;7.312;2023-06-22T02:52:02;20.40;99.90
15483;DHT22;7843;50.330;7.312;2023-06-22T02:54:29;20.40;99.90
15483;DHT22;7843;50.330;7.312;2023-06-22T02:56:55;20.30;99.90
15483;DHT22;7843;50.330;7.312;2023-06-22T02:59:22;20.30;99.90
15483;DHT22;7843;50.330;7.312;2023-06-22T03:01:50;20.30;99.90
15483;DHT22;7843;50.330;7.312;2023-06-22T03:04:18;20.30;99.90
15483;DHT22;7843;50.330;7.312;2023-06-22T03:06:44;20.30;99.90
15483;DHT22;7843;50.330;7.312;2023-06-22T03:09:17;20.30;99.90
15483;DHT22;7843;50.330;7.312;2023-06-22T03:11:44;20.40;99.90
15483;DHT22;7843;50.330;7.312;2023-06-22T03:14:10;20.40;99.90
15483;DHT22;7843;50.330;7.312;2023-06-22T03:16:37;20.40;99.90
15483;DHT22;7843;50.330;7.312;2023-06-22T03:19:04;20.40;99.90
15483;DHT22;7843;50.330;7.312;2023-06-22T03:21:30;20.40;99.90
15483;DHT22;7843;50.330;7.312;2023-06-22T03:23:58;20.40;99.90
15483;DHT22;7843;50.330;7.312;2023-06-22T03:26:25;20.40;99.90
15483;DHT22;7843;50.330;7.312;2023-06-22T03:28:53;20.40;99.90
15483;DHT22;7843;50.330;7.312;2023-06-22T03:31:20;20.50;99.90
15483;DHT22;7843;50.330;7.312;2023-06-22T03:33:49;20.50;99.90
15483;DHT22;7843;50.330;7.312;2023-06-22T03:36:17;20.40;99.90
15483;DHT22;7843;50.330;7.312;2023-06-22T03:38:47;20.40;99.90
15483;DHT22;7843;50.330;7.312;2023-06-22T03:41:15;20.40;99.90
15483;DHT22;7843;50.330;7.312;2023-06-22T03:43:42;20.30;99.90
15483;DHT22;7843;50.330;7.312;2023-06-22T03:46:09;20.30;99.90
15483;DHT22;7843;50.330;7.312;2023-06-22T03:48:35;20.20;99.90
15483;DHT22;7843;50.330;7.312;2023-06-22T03:51:02;20.30;99.90
15483;DHT22;7843;50.330;7.312;2023-06-22T03:53:32;20.20;99.90
15483;DHT22;7843;50.330;7.312;2023-06-22T03:55:59;20.20;99.90
15483;DHT22;7843;50.330;7.312;2023-06-22T03:58:26;20.10;99.90
15483;DHT22;7843;50.330;7.312;2023-06-22T04:00:53;20.00;99.90
15483;DHT22;7843;50.330;7.312;2023-06-22T04:03:20;20.00;99.90
15483;DHT22;7843;50.330;7.312;2023-06-22T04:05:47;19.90;99.90
15483;DHT22;7843;50.330;7.312;2023-06-22T04:08:15;19.90;99.90
15483;DHT22;7843;50.330;7.312;2023-06-22T04:10:42;19.80;99.90
15483;DHT22;7843;50.330;7.312;2023-06-22T04:13:09;19.80;99.90
15483;DHT22;7843;50.330;7.312;2023-06-22T04:15:35;19.80;99.90
15483;DHT22;7843;50.330;7.312;2023-06-22T04:18:02;19.70;99.90
15483;DHT22;7843;50.330;7.312;2023-06-22T04:20:30;19.70;99.90
15483;DHT22;7843;50.330;7.312;2023-06-22T04:22:58;19.70;99.90
15483;DHT22;7843;50.330;7.312;2023-06-22T04:25:24;19.80;99.90
15483;DHT22;7843;50.330;7.312;2023-06-22T04:27:51;19.80;99.90
15483;DHT22;7843;50.330;7.312;2023-06-22T04:30:18;19.80;99.90
15483;DHT22;7843;50.330;7.312;2023-06-22T04:32:45;19.90;99.90
15483;DHT22;7843;50.330;7.312;2023-06-22T04:35:12;19.90;99.90
15483;DHT22;7843;50.330;7.312;2023-06-22T04:37:38;19.90;99.90
15483;DHT22;7843;50.330;7.312;2023-06-22T04:40:06;20.00;99.90
15483;DHT22;7843;50.330;7.312;2023-06-22T04:42:34;20.10;99.90
15483;DHT22;7843;50.330;7.312;2023-06-22T04:45:02;20.10;99.90
15483;DHT22;7843;50.330;7.312;2023-06-22T04:47:29;20.20;99.90
15483;DHT22;7843;50.330;7.312;2023-06-22T04:49:55;20.30;99.90
15483;DHT22;7843;50.330;7.312;2023-06-22T04:52:22;20.30;99.90
15483;DHT22;7843;50.330;7.312;2023-06-22T04:54:51;20.40;99.90
15483;DHT22;7843;50.330;7.312;2023-06-22T04:57:22;20.40;99.90
15483;DHT22;7843;50.330;7.312;2023-06-22T04:59:59;20.50;99.90
15483;DHT22;7843;50.330;7.312;2023-06-22T05:02:40;20.50;99.90
15483;DHT22;7843;50.330;7.312;2023-06-22T05:05:08;20.50;99.90
15483;DHT22;7843;50.330;7.312;2023-06-22T05:07:35;20.60;99.90
15483;DHT22;7843;50.330;7.312;2023-06-22T05:10:03;20.60;99.90
15483;DHT22;7843;50.330;7.312;2023-06-22T05:12:30;20.70;99.90
15483;DHT22;7843;50.330;7.312;2023-06-22T05:14:57;20.80;99.90
15483;DHT22;7843;50.330;7.312;2023-06-22T05:17:24;20.90;99.90
15483;DHT22;7843;50.330;7.312;2023-06-22T05:19:51;20.90;99.90
15483;DHT22;7843;50.330;7.312;2023-06-22T05:22:18;21.00;99.90
15483;DHT22;7843;50.330;7.312;2023-06-22T05:24:46;20.90;99.90
15483;DHT22;7843;50.330;7.312;2023-06-22T05:27:14;20.90;99.90
15483;DHT22;7843;50.330;7.312;2023-06-22T05:29:41;20.90;99.90
15483;DHT22;7843;50.330;7.312;2023-06-22T05:32:09;21.00;99.90
15483;DHT22;7843;50.330;7.312;2023-06-22T05:34:35;21.10;99.90
15483;DHT22;7843;50.330;7.312;2023-06-22T05:37:02;21.10;99.90
15483;DHT22;7843;50.330;7.312;2023-06-22T05:39:29;21.20;99.90
15483;DHT22;7843;50.330;7.312;2023-06-22T05:41:56;21.30;99.90
15483;DHT22;7843;50.330;7.312;2023-06-22T05:44:23;21.40;99.90
15483;DHT22;7843;50.330;7.312;2023-06-22T05:46:50;21.40;99.90
15483;DHT22;7843;50.330;7.312;2023-06-22T05:49:16;21.50;99.90
15483;DHT22;7843;50.330;7.312;2023-06-22T05:51:43;21.60;99.90
15483;DHT22;7843;50.330;7.312;2023-06-22T05:54:10;21.60;99.90
15483;DHT22;7843;50.330;7.312;2023-06-22T05:56:39;21.60;99.90
15483;DHT22;7843;50.330;7.312;2023-06-22T05:59:06;21.70;99.90
15483;DHT22;7843;50.330;7.312;2023-06-22T06:01:33;21.90;99.90
15483;DHT22;7843;50.330;7.312;2023-06-22T06:04:05;21.90;99.70
15483;DHT22;7843;50.330;7.312;2023-06-22T06:06:31;22.00;99.50
15483;DHT22;7843;50.330;7.312;2023-06-22T06:08:58;22.10;98.80
15483;DHT22;7843;50.330;7.312;2023-06-22T06:11:26;22.20;98.90
15483;DHT22;7843;50.330;7.312;2023-06-22T06:13:52;22.20;98.80
15483;DHT22;7843;50.330;7.312;2023-06-22T06:16:19;22.10;98.30
15483;DHT22;7843;50.330;7.312;2023-06-22T06:18:46;22.20;98.50
15483;DHT22;7843;50.330;7.312;2023-06-22T06:21:15;22.20;98.30
15483;DHT22;7843;50.330;7.312;2023-06-22T06:23:41;22.20;98.40
15483;DHT22;7843;50.330;7.312;2023-06-22T06:26:08;22.30;99.00
15483;DHT22;7843;50.330;7.312;2023-06-22T06:28:35;22.50;98.60
15483;DHT22;7843;50.330;7.312;2023-06-22T06:31:02;22.50;98.30
15483;DHT22;7843;50.330;7.312;2023-06-22T06:33:29;22.60;97.90
15483;DHT22;7843;50.330;7.312;2023-06-22T06:35:56;22.70;97.60
15483;DHT22;7843;50.330;7.312;2023-06-22T06:38:22;22.90;97.50
15483;DHT22;7843;50.330;7.312;2023-06-22T06:40:49;23.00;97.20
15483;DHT22;7843;50.330;7.312;2023-06-22T06:43:16;23.10;97.40
15483;DHT22;7843;50.330;7.312;2023-06-22T06:45:44;23.10;97.20
15483;DHT22;7843;50.330;7.312;2023-06-22T06:48:11;23.10;97.10
15483;DHT22;7843;50.330;7.312;2023-06-22T06:50:37;23.10;97.00
15483;DHT22;7843;50.330;7.312;2023-06-22T06:53:04;23.10;97.10
15483;DHT22;7843;50.330;7.312;2023-06-22T06:55:31;23.20;97.10
15483;DHT22;7843;50.330;7.312;2023-06-22T06:57:59;23.30;97.10
15483;DHT22;7843;50.330;7.312;2023-06-22T07:00:26;23.40;96.50
15483;DHT22;7843;50.330;7.312;2023-06-22T07:02:53;23.50;96.50
15483;DHT22;7843;50.330;7.312;2023-06-22T07:05:20;23.60;96.30
15483;DHT22;7843;50.330;7.312;2023-06-22T07:07:47;23.60;95.70
15483;DHT22;7843;50.330;7.312;2023-06-22T07:10:13;23.70;96.20
15483;DHT22;7843;50.330;7.312;2023-06-22T07:12:41;23.60;96.00
15483;DHT22;7843;50.330;7.312;2023-06-22T07:15:09;23.70;95.80
15483;DHT22;7843;50.330;7.312;2023-06-22T07:17:36;23.70;95.90
15483;DHT22;7843;50.330;7.312;2023-06-22T07:20:04;23.80;95.50
15483;DHT22;7843;50.330;7.312;2023-06-22T07:22:39;23.90;95.90
15483;DHT22;7843;50.330;7.312;2023-06-22T07:25:07;23.90;95.40
15483;DHT22;7843;50.330;7.312;2023-06-22T07:27:45;24.10;95.40
15483;DHT22;7843;50.330;7.312;2023-06-22T07:30:12;24.30;94.20
15483;DHT22;7843;50.330;7.312;2023-06-22T07:32:39;24.50;93.00
15483;DHT22;7843;50.330;7.312;2023-06-22T07:35:06;24.60;92.30
15483;DHT22;7843;50.330;7.312;2023-06-22T07:37:33;24.70;92.10
15483;DHT22;7843;50.330;7.312;2023-06-22T07:40:01;24.80;92.50
15483;DHT22;7843;50.330;7.312;2023-06-22T07:42:30;24.90;91.50
15483;DHT22;7843;50.330;7.312;2023-06-22T07:44:59;25.00;91.50
15483;DHT22;7843;50.330;7.312;2023-06-22T07:47:26;25.20;90.30
15483;DHT22;7843;50.330;7.312;2023-06-22T07:49:55;25.40;90.50
15483;DHT22;7843;50.330;7.312;2023-06-22T07:52:24;25.40;90.70
15483;DHT22;7843;50.330;7.312;2023-06-22T07:54:52;25.50;90.70
15483;DHT22;7843;50.330;7.312;2023-06-22T07:57:19;25.60;91.50
15483;DHT22;7843;50.330;7.312;2023-06-22T07:59:46;25.60;90.60
15483;DHT22;7843;50.330;7.312;2023-06-22T08:02:13;25.60;89.70
15483;DHT22;7843;50.330;7.312;2023-06-22T08:04:40;25.70;89.80
15483;DHT22;7843;50.330;7.312;2023-06-22T08:07:07;25.80;90.00
15483;DHT22;7843;50.330;7.312;2023-06-22T08:09:34;25.90;90.10
15483;DHT22;7843;50.330;7.312;2023-06-22T08:12:02;25.90;88.90
15483;DHT22;7843;50.330;7.312;2023-06-22T08:14:29;26.00;89.50
15483;DHT22;7843;50.330;7.312;2023-06-22T08:16:56;26.10;89.20
15483;DHT22;7843;50.330;7.312;2023-06-22T08:19:23;26.10;88.50
15483;DHT22;7843;50.330;7.312;2023-06-22T08:21:50;26.20;88.00
15483;DHT22;7843;50.330;7.312;2023-06-22T08:24:16;26.20;87.70
15483;DHT22;7843;50.330;7.312;2023-06-22T08:26:43;26.20;87.70
15483;DHT22;7843;50.330;7.312;2023-06-22T08:29:10;26.30;89.40
15483;DHT22;7843;50.330;7.312;2023-06-22T08:31:37;26.30;87.90
15483;DHT22;7843;50.330;7.312;2023-06-22T08:34:04;26.30;86.80
15483;DHT22;7843;50.330;7.312;2023-06-22T08:36:30;26.40;87.70
15483;DHT22;7843;50.330;7.312;2023-06-22T08:39:01;26.40;87.10
15483;DHT22;7843;50.330;7.312;2023-06-22T08:41:30;26.40;87.00
15483;DHT22;7843;50.330;7.312;2023-06-22T08:43:57;26.50;87.20
15483;DHT22;7843;50.330;7.312;2023-06-22T08:46:24;26.50;87.30
15483;DHT22;7843;50.330;7.312;2023-06-22T08:48:57;26.60;86.40
15483;DHT22;7843;50.330;7.312;2023-06-22T08:51:24;26.70;87.40
15483;DHT22;7843;50.330;7.312;2023-06-22T08:53:51;26.80;87.10
15483;DHT22;7843;50.330;7.312;2023-06-22T08:56:17;26.80;86.30
15483;DHT22;7843;50.330;7.312;2023-06-22T08:58:45;26.90;86.30
15483;DHT22;7843;50.330;7.312;2023-06-22T09:01:12;27.00;85.60
15483;DHT22;7843;50.330;7.312;2023-06-22T09:03:38;27.10;85.10
15483;DHT22;7843;50.330;7.312;2023-06-22T09:06:05;27.30;84.80
15483;DHT22;7843;50.330;7.312;2023-06-22T09:08:32;27.30;85.00
15483;DHT22;7843;50.330;7.312;2023-06-22T09:10:59;27.30;84.50
15483;DHT22;7843;50.330;7.312;2023-06-22T09:13:26;27.40;83.40
15483;DHT22;7843;50.330;7.312;2023-06-22T09:15:52;27.40;83.70
15483;DHT22;7843;50.330;7.312;2023-06-22T09:18:19;27.60;82.60
15483;DHT22;7843;50.330;7.312;2023-06-22T09:20:46;27.60;84.60
15483;DHT22;7843;50.330;7.312;2023-06-22T09:23:12;27.60;82.60
15483;DHT22;7843;50.330;7.312;2023-06-22T09:25:39;27.60;82.60
15483;DHT22;7843;50.330;7.312;2023-06-22T09:28:07;27.60;82.80
15483;DHT22;7843;50.330;7.312;2023-06-22T09:30:33;27.60;82.50
15483;DHT22;7843;50.330;7.312;2023-06-22T09:33:00;27.30;83.70
15483;DHT22;7843;50.330;7.312;2023-06-22T09:35:27;27.20;83.30
15483;DHT22;7843;50.330;7.312;2023-06-22T09:37:54;27.00;84.00
15483;DHT22;7843;50.330;7.312;2023-06-22T09:40:21;26.80;84.40
15483;DHT22;7843;50.330;7.312;2023-06-22T09:42:48;26.60;86.10
15483;DHT22;7843;50.330;7.312;2023-06-22T09:45:15;26.50;87.00
15483;DHT22;7843;50.330;7.312;2023-06-22T09:47:41;26.30;87.60
15483;DHT22;7843;50.330;7.312;2023-06-22T09:50:09;26.20;88.90
15483;DHT22;7843;50.330;7.312;2023-06-22T09:52:36;26.10;89.80
15483;DHT22;7843;50.330;7.312;2023-06-22T09:55:06;26.00;90.20
15483;DHT22;7843;50.330;7.312;2023-06-22T09:57:33;25.90;91.10
15483;DHT22;7843;50.330;7.312;2023-06-22T09:59:59;25.80;90.00
15483;DHT22;7843;50.330;7.312;2023-06-22T10:02:26;25.70;90.30
15483;DHT22;7843;50.330;7.312;2023-06-22T10:04:53;25.70;90.40
15483;DHT22;7843;50.330;7.312;2023-06-22T10:07:20;25.60;91.40
15483;DHT22;7843;50.330;7.312;2023-06-22T10:09:46;25.50;91.90
15483;DHT22;7843;50.330;7.312;2023-06-22T10:12:13;25.40;92.30
15483;DHT22;7843;50.330;7.312;2023-06-22T10:14:40;25.30;93.90
15483;DHT22;7843;50.330;7.312;2023-06-22T10:17:06;25.10;95.70
15483;DHT22;7843;50.330;7.312;2023-06-22T10:19:34;24.90;97.40
15483;DHT22;7843;50.330;7.312;2023-06-22T10:22:04;24.70;98.90
15483;DHT22;7843;50.330;7.312;2023-06-22T10:24:31;24.50;99.90
15483;DHT22;7843;50.330;7.312;2023-06-22T10:26:58;24.40;99.90
15483;DHT22;7843;50.330;7.312;2023-06-22T10:29:25;24.40;99.90
15483;DHT22;7843;50.330;7.312;2023-06-22T10:31:51;24.30;99.90
15483;DHT22;7843;50.330;7.312;2023-06-22T10:34:18;24.20;99.90
15483;DHT22;7843;50.330;7.312;2023-06-22T10:36:45;24.20;99.90
15483;DHT22;7843;50.330;7.312;2023-06-22T10:39:15;24.30;99.90
15483;DHT22;7843;50.330;7.312;2023-06-22T10:41:41;24.30;99.90
15483;DHT22;7843;50.330;7.312;2023-06-22T10:44:08;24.40;99.90
15483;DHT22;7843;50.330;7.312;2023-06-22T10:46:35;24.50;99.90
15483;DHT22;7843;50.330;7.312;2023-06-22T10:49:02;24.50;99.90
15483;DHT22;7843;50.330;7.312;2023-06-22T10:51:28;24.70;99.90
15483;DHT22;7843;50.330;7.312;2023-06-22T10:53:55;24.90;99.90
15483;DHT22;7843;50.330;7.312;2023-06-22T10:56:22;25.10;99.90
15483;DHT22;7843;50.330;7.312;2023-06-22T10:58:49;25.40;99.90
15483;DHT22;7843;50.330;7.312;2023-06-22T11:01:16;25.60;99.50
15483;DHT22;7843;50.330;7.312;2023-06-22T11:03:52;25.70;99.30
15483;DHT22;7843;50.330;7.312;2023-06-22T11:06:18;25.90;98.20
15483;DHT22;7843;50.330;7.312;2023-06-22T11:08:45;26.00;98.10
15483;DHT22;7843;50.330;7.312;2023-06-22T11:11:14;26.20;97.20
15483;DHT22;7843;50.330;7.312;2023-06-22T11:13:41;26.40;96.80
15483;DHT22;7843;50.330;7.312;2023-06-22T11:16:08;26.50;96.30
15483;DHT22;7843;50.330;7.312;2023-06-22T11:18:35;26.60;95.80
15483;DHT22;7843;50.330;7.312;2023-06-22T11:21:02;26.80;94.00
15483;DHT22;7843;50.330;7.312;2023-06-22T11:23:28;26.70;94.40
15483;DHT22;7843;50.330;7.312;2023-06-22T11:25:55;26.70;94.10
15483;DHT22;7843;50.330;7.312;2023-06-22T11:28:22;26.80;93.60
15483;DHT22;7843;50.330;7.312;2023-06-22T11:30:49;26.80;93.30
15483;DHT22;7843;50.330;7.312;2023-06-22T11:33:16;26.80;94.10
15483;DHT22;7843;50.330;7.312;2023-06-22T11:35:42;26.80;93.50
15483;DHT22;7843;50.330;7.312;2023-06-22T11:38:09;26.70;92.90
15483;DHT22;7843;50.330;7.312;2023-06-22T11:40:36;26.60;92.70
15483;DHT22;7843;50.330;7.312;2023-06-22T11:43:03;26.60;92.10
15483;DHT22;7843;50.330;7.312;2023-06-22T11:45:29;26.60;92.10
15483;DHT22;7843;50.330;7.312;2023-06-22T11:47:56;26.60;91.10
15483;DHT22;7843;50.330;7.312;2023-06-22T11:50:23;26.50;91.80
15483;DHT22;7843;50.330;7.312;2023-06-22T11:52:50;26.50;92.10
15483;DHT22;7843;50.330;7.312;2023-06-22T11:55:17;26.50;93.00
15483;DHT22;7843;50.330;7.312;2023-06-22T11:57:56;26.40;93.00
15483;DHT22;7843;50.330;7.312;2023-06-22T12:00:26;26.50;91.90
15483;DHT22;7843;50.330;7.312;2023-06-22T12:02:55;26.70;92.10
15483;DHT22;7843;50.330;7.312;2023-06-22T12:05:23;27.00;91.20
15483;DHT22;7843;50.330;7.312;2023-06-22T12:07:53;27.30;90.70
15483;DHT22;7843;50.330;7.312;2023-06-22T12:10:22;27.70;89.00
15483;DHT22;7843;50.330;7.312;2023-06-22T12:12:48;28.10;89.60
15483;DHT22;7843;50.330;7.312;2023-06-22T12:15:15;28.50;87.90
15483;DHT22;7843;50.330;7.312;2023-06-22T12:17:42;28.90;87.00
15483;DHT22;7843;50.330;7.312;2023-06-22T12:20:09;29.20;84.70
15483;DHT22;7843;50.330;7.312;2023-06-22T12:22:36;29.50;85.10
15483;DHT22;7843;50.330;7.312;2023-06-22T12:25:04;29.70;84.10
15483;DHT22;7843;50.330;7.312;2023-06-22T12:27:31;29.90;82.90
15483;DHT22;7843;50.330;7.312;2023-06-22T12:29:58;30.00;80.70
15483;DHT22;7843;50.330;7.312;2023-06-22T12:32:24;30.10;80.90
15483;DHT22;7843;50.330;7.312;2023-06-22T12:34:52;30.20;81.30
15483;DHT22;7843;50.330;7.312;2023-06-22T12:37:18;30.30;78.50
15483;DHT22;7843;50.330;7.312;2023-06-22T12:39:45;30.60;79.30
15483;DHT22;7843;50.330;7.312;2023-06-22T12:42:12;30.80;78.20
15483;DHT22;7843;50.330;7.312;2023-06-22T12:44:39;30.80;76.20
15483;DHT22;7843;50.330;7.312;2023-06-22T12:47:06;30.90;77.50
15483;DHT22;7843;50.330;7.312;2023-06-22T12:49:34;31.10;76.50
15483;DHT22;7843;50.330;7.312;2023-06-22T12:52:02;31.30;76.80
15483;DHT22;7843;50.330;7.312;2023-06-22T12:54:29;31.50;76.70
15483;DHT22;7843;50.330;7.312;2023-06-22T12:56:56;31.60;76.40
15483;DHT22;7843;50.330;7.312;2023-06-22T12:59:23;31.90;76.60
15483;DHT22;7843;50.330;7.312;2023-06-22T13:01:50;32.10;76.00
15483;DHT22;7843;50.330;7.312;2023-06-22T13:04:17;32.20;75.40
15483;DHT22;7843;50.330;7.312;2023-06-22T13:06:45;32.30;74.60
15483;DHT22;7843;50.330;7.312;2023-06-22T13:09:15;32.50;75.00
15483;DHT22;7843;50.330;7.312;2023-06-22T13:11:45;32.60;74.20
15483;DHT22;7843;50.330;7.312;2023-06-22T13:14:12;32.30;74.30
15483;DHT22;7843;50.330;7.312;2023-06-22T13:16:39;31.60;76.00
15483;DHT22;7843;50.330;7.312;2023-06-22T13:19:06;31.30;77.40
15483;DHT22;7843;50.330;7.312;2023-06-22T13:21:33;31.40;77.40
15483;DHT22;7843;50.330;7.312;2023-06-22T13:24:00;31.10;77.10
15483;DHT22;7843;50.330;7.312;2023-06-22T13:26:28;30.80;78.20
15483;DHT22;7843;50.330;7.312;2023-06-22T13:28:55;30.40;79.60
15483;DHT22;7843;50.330;7.312;2023-06-22T13:31:21;30.00;79.30
15483;DHT22;7843;50.330;7.312;2023-06-22T13:33:48;29.60;80.80
15483;DHT22;7843;50.330;7.312;2023-06-22T13:36:18;29.20;82.20
15483;DHT22;7843;50.330;7.312;2023-06-22T13:38:46;28.80;83.80
15483;DHT22;7843;50.330;7.312;2023-06-22T13:41:12;28.40;85.40
15483;DHT22;7843;50.330;7.312;2023-06-22T13:43:39;27.80;88.10
15483;DHT22;7843;50.330;7.312;2023-06-22T13:46:06;27.30;89.80
15483;DHT22;7843;50.330;7.312;2023-06-22T13:48:33;26.90;92.00
15483;DHT22;7843;50.330;7.312;2023-06-22T13:50:59;26.60;93.90
15483;DHT22;7843;50.330;7.312;2023-06-22T13:53:26;26.30;94.80
15483;DHT22;7843;50.330;7.312;2023-06-22T13:55:53;25.90;96.10
15483;DHT22;7843;50.330;7.312;2023-06-22T13:58:19;25.60;97.20
15483;DHT22;7843;50.330;7.312;2023-06-22T14:00:46;25.40;98.00
15483;DHT22;7843;50.330;7.312;2023-06-22T14:03:13;25.00;99.60
15483;DHT22;7843;50.330;7.312;2023-06-22T14:05:42;24.60;99.90
15483;DHT22;7843;50.330;7.312;2023-06-22T14:08:09;23.80;99.70
15483;DHT22;7843;50.330;7.312;2023-06-22T14:10:41;23.00;99.90
15483;DHT22;7843;50.330;7.312;2023-06-22T14:13:08;22.10;99.90
15483;DHT22;7843;50.330;7.312;2023-06-22T14:15:34;21.40;99.90
15483;DHT22;7843;50.330;7.312;2023-06-22T14:18:01;21.30;99.90
15483;DHT22;7843;50.330;7.312;2023-06-22T14:20:28;21.20;99.90
15483;DHT22;7843;50.330;7.312;2023-06-22T14:22:55;21.00;99.90
15483;DHT22;7843;50.330;7.312;2023-06-22T14:25:22;21.00;99.90
15483;DHT22;7843;50.330;7.312;2023-06-22T14:27:48;20.90;99.90
15483;DHT22;7843;50.330;7.312;2023-06-22T14:30:15;20.90;99.90
15483;DHT22;7843;50.330;7.312;2023-06-22T14:32:43;21.00;99.90
15483;DHT22;7843;50.330;7.312;2023-06-22T14:35:10;20.90;99.90
15483;DHT22;7843;50.330;7.312;2023-06-22T14:37:37;20.90;99.90
15483;DHT22;7843;50.330;7.312;2023-06-22T14:40:04;20.90;99.90
15483;DHT22;7843;50.330;7.312;2023-06-22T14:42:31;20.90;99.90
15483;DHT22;7843;50.330;7.312;2023-06-22T14:44:58;20.90;99.90
15483;DHT22;7843;50.330;7.312;2023-06-22T14:47:24;20.90;99.90
15483;DHT22;7843;50.330;7.312;2023-06-22T14:49:51;20.80;99.90
15483;DHT22;7843;50.330;7.312;2023-06-22T14:52:18;20.90;99.90
15483;DHT22;7843;50.330;7.312;2023-06-22T14:54:45;20.90;99.90
15483;DHT22;7843;50.330;7.312;2023-06-22T14:57:11;20.90;99.90
15483;DHT22;7843;50.330;7.312;2023-06-22T14:59:38;20.90;99.90
15483;DHT22;7843;50.330;7.312;2023-06-22T15:02:06;20.80;99.90
15483;DHT22;7843;50.330;7.312;2023-06-22T15:04:33;20.80;99.90
15483;DHT22;7843;50.330;7.312;2023-06-22T15:07:01;20.80;99.90
15483;DHT22;7843;50.330;7.312;2023-06-22T15:09:28;20.80;99.90
15483;DHT22;7843;50.330;7.312;2023-06-22T15:11:55;20.70;99.90
15483;DHT22;7843;50.330;7.312;2023-06-22T15:14:21;20.70;99.90
15483;DHT22;7843;50.330;7.312;2023-06-22T15:16:48;20.70;99.90
15483;DHT22;7843;50.330;7.312;2023-06-22T15:19:15;20.60;99.90
15483;DHT22;7843;50.330;7.312;2023-06-22T15:21:42;20.60;99.90
15483;DHT22;7843;50.330;7.312;2023-06-22T15:24:09;20.60;99.90
15483;DHT22;7843;50.330;7.312;2023-06-22T15:26:36;20.60;99.90
15483;DHT22;7843;50.330;7.312;2023-06-22T15:29:03;20.50;99.90
15483;DHT22;7843;50.330;7.312;2023-06-22T15:31:29;20.60;99.90
15483;DHT22;7843;50.330;7.312;2023-06-22T15:33:56;20.50;99.90
15483;DHT22;7843;50.330;7.312;2023-06-22T15:36:23;20.50;99.90
15483;DHT22;7843;50.330;7.312;2023-06-22T15:38:50;20.50;99.90
15483;DHT22;7843;50.330;7.312;2023-06-22T15:41:16;20.50;99.90
15483;DHT22;7843;50.330;7.312;2023-06-22T15:43:43;20.60;99.90
15483;DHT22;7843;50.330;7.312;2023-06-22T15:46:10;20.60;99.90
15483;DHT22;7843;50.330;7.312;2023-06-22T15:48:37;20.70;99.90
15483;DHT22;7843;50.330;7.312;2023-06-22T15:51:03;20.70;99.90